sensor_id;sensor_type;location;lat;lon;timestamp;temperature;humidity
48666;DHT22;34452;50.796;4.994;2023-01-28T00:02:05;4.30;99.90
48666;DHT22;34452;50.796;4.994;2023-01-28T00:04:31;4.40;99.90
48666;DHT22;34452;50.796;4.994;2023-01-28T00:06:57;4.40;99.90
48666;DHT22;34452;50.796;4.994;2023-01-28T00:09:22;4.40;99.90
48666;DHT22;34452;50.796;4.994;2023-01-28T00:11:48;4.40;99.90
48666;DHT22;34452;50.796;4.994;2023-01-28T00:14:14;4.30;99.90
48666;DHT22;34452;50.796;4.994;2023-01-28T00:16:39;4.40;99.90
48666;DHT22;34452;50.796;4.994;2023-01-28T00:19:05;4.40;99.90
48666;DHT22;34452;50.796;4.994;2023-01-28T00:21:31;4.30;99.90
48666;DHT22;34452;50.796;4.994;2023-01-28T00:23:57;4.40;99.90
48666;DHT22;34452;50.796;4.994;2023-01-28T00:26:23;4.30;99.90
48666;DHT22;34452;50.796;4.994;2023-01-28T00:28:49;4.40;99.90
48666;DHT22;34452;50.796;4.994;2023-01-28T00:31:19;4.30;99.90
48666;DHT22;34452;50.796;4.994;2023-01-28T00:33:47;4.30;99.90
48666;DHT22;34452;50.796;4.994;2023-01-28T00:36:14;4.20;99.90
48666;DHT22;34452;50.796;4.994;2023-01-28T00:38:40;4.20;99.90
48666;DHT22;34452;50.796;4.994;2023-01-28T00:41:11;4.20;99.90
48666;DHT22;34452;50.796;4.994;2023-01-28T00:43:38;4.30;99.90
48666;DHT22;34452;50.796;4.994;2023-01-28T00:46:05;4.20;99.90
48666;DHT22;34452;50.796;4.994;2023-01-28T00:48:32;4.20;99.90
48666;DHT22;34452;50.796;4.994;2023-01-28T00:50:58;4.20;99.90
48666;DHT22;34452;50.796;4.994;2023-01-28T00:53:24;4.20;99.90
48666;DHT22;34452;50.796;4.994;2023-01-28T00:55:50;4.20;99.90
48666;DHT22;34452;50.796;4.994;2023-01-28T00:58:16;4.30;99.90
48666;DHT22;34452;50.796;4.994;2023-01-28T01:00:41;4.30;99.90
48666;DHT22;34452;50.796;4.994;2023-01-28T01:03:07;4.20;99.90
48666;DHT22;34452;50.796;4.994;2023-01-28T01:05:33;4.20;99.90
48666;DHT22;34452;50.796;4.994;2023-01-28T01:07:59;4.20;99.90
48666;DHT22;34452;50.796;4.994;2023-01-28T01:10:25;4.30;99.90
48666;DHT22;34452;50.796;4.994;2023-01-28T01:12:51;4.30;99.90
48666;DHT22;34452;50.796;4.994;2023-01-28T01:15:17;4.30;99.90
48666;DHT22;34452;50.796;4.994;2023-01-28T01:17:46;4.40;99.90
48666;DHT22;34452;50.796;4.994;2023-01-28T01:20:17;4.40;99.90
48666;DHT22;34452;50.796;4.994;2023-01-28T01:22:43;4.30;99.90
48666;DHT22;34452;50.796;4.994;2023-01-28T01:25:10;4.30;99.90
48666;DHT22;34452;50.796;4.994;2023-01-28T01:27:36;4.40;99.90
48666;DHT22;34452;50.796;4.994;2023-01-28T01:30:02;4.40;99.90
48666;DHT22;34452;50.796;4.994;2023-01-28T01:32:30;4.40;99.90
48666;DHT22;34452;50.796;4.994;2023-01-28T01:34:56;4.50;99.90
48666;DHT22;34452;50.796;4.994;2023-01-28T01:37:22;4.30;99.90
48666;DHT22;34452;50.796;4.994;2023-01-28T01:39:47;4.40;99.90
48666;DHT22;34452;50.796;4.994;2023-01-28T01:42:14;4.30;99.90
48666;DHT22;34452;50.796;4.994;2023-01-28T01:44:56;4.30;99.90
48666;DHT22;34452;50.796;4.994;2023-01-28T01:47:26;4.30;99.90
48666;DHT22;34452;50.796;4.994;2023-01-28T01:49:54;4.20;99.90
48666;DHT22;34452;50.796;4.994;2023-01-28T01:52:25;4.20;99.90
48666;DHT22;34452;50.796;4.994;2023-01-28T01:54:56;4.10;99.90
48666;DHT22;34452;50.796;4.994;2023-01-28T01:57:27;4.20;99.90
48666;DHT22;34452;50.796;4.994;2023-01-28T01:59:54;4.20;99.90
48666;DHT22;34452;50.796;4.994;2023-01-28T02:02:23;4.10;99.90
48666;DHT22;34452;50.796;4.994;2023-01-28T02:04:48;4.10;99.90
48666;DHT22;34452;50.796;4.994;2023-01-28T02:07:15;4.10;99.90
48666;DHT22;34452;50.796;4.994;2023-01-28T02:09:42;4.30;99.90
48666;DHT22;34452;50.796;4.994;2023-01-28T02:12:12;4.20;99.90
48666;DHT22;34452;50.796;4.994;2023-01-28T02:14:45;4.10;99.90
48666;DHT22;34452;50.796;4.994;2023-01-28T02:17:12;4.10;99.90
48666;DHT22;34452;50.796;4.994;2023-01-28T02:31:26;4.10;99.90
48666;DHT22;34452;50.796;4.994;2023-01-28T02:33:38;4.00;99.90
48666;DHT22;34452;50.796;4.994;2023-01-28T02:36:15;4.00;99.90
48666;DHT22;34452;50.796;4.994;2023-01-28T02:38:45;4.10;99.90
48666;DHT22;34452;50.796;4.994;2023-01-28T02:41:23;4.20;99.90
48666;DHT22;34452;50.796;4.994;2023-01-28T02:43:50;4.10;99.90
48666;DHT22;34452;50.796;4.994;2023-01-28T02:49:26;4.10;99.90
48666;DHT22;34452;50.796;4.994;2023-01-28T02:54:57;4.10;99.90
48666;DHT22;34452;50.796;4.994;2023-01-28T02:57:46;4.10;99.90
48666;DHT22;34452;50.796;4.994;2023-01-28T03:00:25;4.20;99.90
48666;DHT22;34452;50.796;4.994;2023-01-28T03:03:04;4.20;99.90
48666;DHT22;34452;50.796;4.994;2023-01-28T03:05:35;4.30;99.90
48666;DHT22;34452;50.796;4.994;2023-01-28T03:08:04;4.30;99.90
48666;DHT22;34452;50.796;4.994;2023-01-28T03:10:53;4.30;99.90
48666;DHT22;34452;50.796;4.994;2023-01-28T03:13:39;4.10;99.90
48666;DHT22;34452;50.796;4.994;2023-01-28T03:16:24;4.10;99.90
48666;DHT22;34452;50.796;4.994;2023-01-28T03:19:10;4.10;99.90
48666;DHT22;34452;50.796;4.994;2023-01-28T03:21:56;4.10;99.90
48666;DHT22;34452;50.796;4.994;2023-01-28T03:24:46;4.00;99.90
48666;DHT22;34452;50.796;4.994;2023-01-28T03:27:53;4.00;99.90
48666;DHT22;34452;50.796;4.994;2023-01-28T03:31:03;4.00;99.90
48666;DHT22;34452;50.796;4.994;2023-01-28T03:33:50;4.00;99.90
48666;DHT22;34452;50.796;4.994;2023-01-28T03:36:35;4.10;99.90
48666;DHT22;34452;50.796;4.994;2023-01-28T03:39:28;4.00;99.90
48666;DHT22;34452;50.796;4.994;2023-01-28T03:42:08;3.80;99.90
48666;DHT22;34452;50.796;4.994;2023-01-28T03:44:35;3.80;99.90
48666;DHT22;34452;50.796;4.994;2023-01-28T03:47:27;3.90;99.90
48666;DHT22;34452;50.796;4.994;2023-01-28T03:49:54;3.90;99.90
48666;DHT22;34452;50.796;4.994;2023-01-28T03:52:23;3.80;99.90
48666;DHT22;34452;50.796;4.994;2023-01-28T03:54:49;3.70;99.90
48666;DHT22;34452;50.796;4.994;2023-01-28T03:57:18;3.80;99.90
48666;DHT22;34452;50.796;4.994;2023-01-28T03:59:44;3.80;99.90
48666;DHT22;34452;50.796;4.994;2023-01-28T04:02:12;3.80;99.90
48666;DHT22;34452;50.796;4.994;2023-01-28T04:04:39;3.70;99.90
48666;DHT22;34452;50.796;4.994;2023-01-28T04:07:06;3.50;99.90
48666;DHT22;34452;50.796;4.994;2023-01-28T04:09:36;3.50;99.90
48666;DHT22;34452;50.796;4.994;2023-01-28T04:12:03;3.50;99.90
48666;DHT22;34452;50.796;4.994;2023-01-28T04:14:29;3.50;99.90
48666;DHT22;34452;50.796;4.994;2023-01-28T04:16:55;3.40;99.90
48666;DHT22;34452;50.796;4.994;2023-01-28T04:19:22;3.50;99.90
48666;DHT22;34452;50.796;4.994;2023-01-28T04:21:47;3.50;99.90
48666;DHT22;34452;50.796;4.994;2023-01-28T04:24:14;3.50;99.90
48666;DHT22;34452;50.796;4.994;2023-01-28T04:26:40;3.50;99.90
48666;DHT22;34452;50.796;4.994;2023-01-28T04:29:06;3.60;99.90
48666;DHT22;34452;50.796;4.994;2023-01-28T04:31:32;3.60;99.90
48666;DHT22;34452;50.796;4.994;2023-01-28T04:33:59;3.50;99.90
48666;DHT22;34452;50.796;4.994;2023-01-28T04:36:25;3.60;99.90
48666;DHT22;34452;50.796;4.994;2023-01-28T04:38:51;3.50;99.90
48666;DHT22;34452;50.796;4.994;2023-01-28T04:41:17;3.40;99.90
48666;DHT22;34452;50.796;4.994;2023-01-28T04:43:43;3.30;99.90
48666;DHT22;34452;50.796;4.994;2023-01-28T04:46:09;3.40;99.90
48666;DHT22;34452;50.796;4.994;2023-01-28T04:48:34;3.50;99.90
48666;DHT22;34452;50.796;4.994;2023-01-28T04:51:02;3.50;99.90
48666;DHT22;34452;50.796;4.994;2023-01-28T04:53:28;3.40;99.90
48666;DHT22;34452;50.796;4.994;2023-01-28T04:55:55;3.50;99.90
48666;DHT22;34452;50.796;4.994;2023-01-28T04:58:20;3.50;99.90
48666;DHT22;34452;50.796;4.994;2023-01-28T05:00:46;3.40;99.90
48666;DHT22;34452;50.796;4.994;2023-01-28T05:03:16;3.50;99.90
48666;DHT22;34452;50.796;4.994;2023-01-28T05:05:41;3.50;99.90
48666;DHT22;34452;50.796;4.994;2023-01-28T05:08:08;3.50;99.90
48666;DHT22;34452;50.796;4.994;2023-01-28T05:10:33;3.50;99.90
48666;DHT22;34452;50.796;4.994;2023-01-28T05:12:59;3.60;99.90
48666;DHT22;34452;50.796;4.994;2023-01-28T05:15:25;3.40;99.90
48666;DHT22;34452;50.796;4.994;2023-01-28T05:17:53;3.30;99.90
48666;DHT22;34452;50.796;4.994;2023-01-28T05:20:20;3.30;99.90
48666;DHT22;34452;50.796;4.994;2023-01-28T05:22:45;3.20;99.90
48666;DHT22;34452;50.796;4.994;2023-01-28T05:25:11;3.30;99.90
48666;DHT22;34452;50.796;4.994;2023-01-28T05:27:37;3.30;99.90
48666;DHT22;34452;50.796;4.994;2023-01-28T05:30:03;3.30;99.90
48666;DHT22;34452;50.796;4.994;2023-01-28T05:32:30;3.20;99.90
48666;DHT22;34452;50.796;4.994;2023-01-28T05:34:56;3.30;99.90
48666;DHT22;34452;50.796;4.994;2023-01-28T05:37:22;3.20;99.90
48666;DHT22;34452;50.796;4.994;2023-01-28T05:39:47;3.10;99.90
48666;DHT22;34452;50.796;4.994;2023-01-28T05:42:13;3.20;99.90
48666;DHT22;34452;50.796;4.994;2023-01-28T05:44:40;3.30;99.90
48666;DHT22;34452;50.796;4.994;2023-01-28T05:47:06;3.20;99.90
48666;DHT22;34452;50.796;4.994;2023-01-28T05:49:31;3.20;99.90
48666;DHT22;34452;50.796;4.994;2023-01-28T05:51:57;3.10;99.90
48666;DHT22;34452;50.796;4.994;2023-01-28T05:54:23;3.10;99.90
48666;DHT22;34452;50.796;4.994;2023-01-28T05:56:48;3.20;99.90
48666;DHT22;34452;50.796;4.994;2023-01-28T05:59:14;3.20;99.90
48666;DHT22;34452;50.796;4.994;2023-01-28T06:01:40;3.20;99.90
48666;DHT22;34452;50.796;4.994;2023-01-28T06:04:06;3.10;99.90
48666;DHT22;34452;50.796;4.994;2023-01-28T06:06:32;3.10;99.90
48666;DHT22;34452;50.796;4.994;2023-01-28T06:08:57;3.20;99.90
48666;DHT22;34452;50.796;4.994;2023-01-28T06:11:23;3.30;99.90
48666;DHT22;34452;50.796;4.994;2023-01-28T06:13:49;3.40;99.90
48666;DHT22;34452;50.796;4.994;2023-01-28T06:16:15;3.40;99.90
48666;DHT22;34452;50.796;4.994;2023-01-28T06:18:40;3.50;99.90
48666;DHT22;34452;50.796;4.994;2023-01-28T06:21:07;3.50;99.90
48666;DHT22;34452;50.796;4.994;2023-01-28T06:23:32;3.50;99.90
48666;DHT22;34452;50.796;4.994;2023-01-28T06:25:58;3.50;99.90
48666;DHT22;34452;50.796;4.994;2023-01-28T06:28:24;3.50;99.90
48666;DHT22;34452;50.796;4.994;2023-01-28T06:30:51;3.60;99.90
48666;DHT22;34452;50.796;4.994;2023-01-28T06:33:18;3.60;99.90
48666;DHT22;34452;50.796;4.994;2023-01-28T06:35:44;3.60;99.90
48666;DHT22;34452;50.796;4.994;2023-01-28T06:38:11;3.70;99.90
48666;DHT22;34452;50.796;4.994;2023-01-28T06:40:37;3.70;99.90
48666;DHT22;34452;50.796;4.994;2023-01-28T06:43:03;3.70;99.90
48666;DHT22;34452;50.796;4.994;2023-01-28T06:45:29;3.70;99.90
48666;DHT22;34452;50.796;4.994;2023-01-28T06:47:55;3.50;99.90
48666;DHT22;34452;50.796;4.994;2023-01-28T06:50:21;3.40;99.90
48666;DHT22;34452;50.796;4.994;2023-01-28T06:52:46;3.20;99.90
48666;DHT22;34452;50.796;4.994;2023-01-28T06:55:12;3.30;99.90
48666;DHT22;34452;50.796;4.994;2023-01-28T06:57:39;3.40;99.90
48666;DHT22;34452;50.796;4.994;2023-01-28T07:00:06;3.50;99.90
48666;DHT22;34452;50.796;4.994;2023-01-28T07:02:32;3.50;99.90
48666;DHT22;34452;50.796;4.994;2023-01-28T07:04:58;3.40;99.90
48666;DHT22;34452;50.796;4.994;2023-01-28T07:07:24;3.40;99.90
48666;DHT22;34452;50.796;4.994;2023-01-28T07:09:50;3.50;99.90
48666;DHT22;34452;50.796;4.994;2023-01-28T07:12:15;3.50;99.90
48666;DHT22;34452;50.796;4.994;2023-01-28T07:14:41;3.40;99.90
48666;DHT22;34452;50.796;4.994;2023-01-28T07:17:07;3.40;99.90
48666;DHT22;34452;50.796;4.994;2023-01-28T07:19:32;3.40;99.90
48666;DHT22;34452;50.796;4.994;2023-01-28T07:21:58;3.40;99.90
48666;DHT22;34452;50.796;4.994;2023-01-28T07:24:25;3.50;99.90
48666;DHT22;34452;50.796;4.994;2023-01-28T07:26:51;3.50;99.90
48666;DHT22;34452;50.796;4.994;2023-01-28T07:29:17;3.40;99.90
48666;DHT22;34452;50.796;4.994;2023-01-28T07:31:42;3.40;99.90
48666;DHT22;34452;50.796;4.994;2023-01-28T07:34:08;3.40;99.90
48666;DHT22;34452;50.796;4.994;2023-01-28T07:36:34;3.30;99.90
48666;DHT22;34452;50.796;4.994;2023-01-28T07:39:00;3.30;99.90
48666;DHT22;34452;50.796;4.994;2023-01-28T07:41:25;3.40;99.90
48666;DHT22;34452;50.796;4.994;2023-01-28T07:43:52;3.40;99.90
48666;DHT22;34452;50.796;4.994;2023-01-28T07:46:18;3.30;99.90
48666;DHT22;34452;50.796;4.994;2023-01-28T07:48:43;3.20;99.90
48666;DHT22;34452;50.796;4.994;2023-01-28T07:51:10;3.10;99.90
48666;DHT22;34452;50.796;4.994;2023-01-28T07:53:36;3.10;99.90
48666;DHT22;34452;50.796;4.994;2023-01-28T07:56:01;3.20;99.90
48666;DHT22;34452;50.796;4.994;2023-01-28T07:58:29;3.20;99.90
48666;DHT22;34452;50.796;4.994;2023-01-28T08:00:58;3.20;99.90
48666;DHT22;34452;50.796;4.994;2023-01-28T08:03:24;3.30;99.90
48666;DHT22;34452;50.796;4.994;2023-01-28T08:05:52;3.30;99.90
48666;DHT22;34452;50.796;4.994;2023-01-28T08:08:19;3.30;99.90
48666;DHT22;34452;50.796;4.994;2023-01-28T08:10:46;3.20;99.90
48666;DHT22;34452;50.796;4.994;2023-01-28T08:13:14;3.30;99.90
48666;DHT22;34452;50.796;4.994;2023-01-28T08:15:40;3.20;99.90
48666;DHT22;34452;50.796;4.994;2023-01-28T08:18:08;3.30;99.90
48666;DHT22;34452;50.796;4.994;2023-01-28T08:20:34;3.40;99.90
48666;DHT22;34452;50.796;4.994;2023-01-28T08:23:16;3.40;99.90
48666;DHT22;34452;50.796;4.994;2023-01-28T08:25:43;3.30;99.90
48666;DHT22;34452;50.796;4.994;2023-01-28T08:28:10;3.40;99.90
48666;DHT22;34452;50.796;4.994;2023-01-28T08:30:36;3.30;99.90
48666;DHT22;34452;50.796;4.994;2023-01-28T08:33:04;3.30;99.90
48666;DHT22;34452;50.796;4.994;2023-01-28T08:35:31;3.30;99.90
48666;DHT22;34452;50.796;4.994;2023-01-28T08:37:59;3.30;99.90
48666;DHT22;34452;50.796;4.994;2023-01-28T08:40:25;3.30;99.90
48666;DHT22;34452;50.796;4.994;2023-01-28T08:42:52;3.30;99.90
48666;DHT22;34452;50.796;4.994;2023-01-28T08:45:20;3.40;99.90
48666;DHT22;34452;50.796;4.994;2023-01-28T08:47:54;3.40;99.90
48666;DHT22;34452;50.796;4.994;2023-01-28T08:50:21;3.40;99.90
48666;DHT22;34452;50.796;4.994;2023-01-28T08:52:47;3.40;99.90
48666;DHT22;34452;50.796;4.994;2023-01-28T08:55:15;3.40;99.90
48666;DHT22;34452;50.796;4.994;2023-01-28T08:57:41;3.40;99.90
48666;DHT22;34452;50.796;4.994;2023-01-28T09:00:07;3.50;99.90
48666;DHT22;34452;50.796;4.994;2023-01-28T09:02:36;3.40;99.90
48666;DHT22;34452;50.796;4.994;2023-01-28T09:05:02;3.50;99.90
48666;DHT22;34452;50.796;4.994;2023-01-28T09:07:28;3.30;99.90
48666;DHT22;34452;50.796;4.994;2023-01-28T09:09:54;3.30;99.90
48666;DHT22;34452;50.796;4.994;2023-01-28T09:12:20;3.40;99.90
48666;DHT22;34452;50.796;4.994;2023-01-28T09:14:45;3.40;99.90
48666;DHT22;34452;50.796;4.994;2023-01-28T09:17:11;3.40;99.90
48666;DHT22;34452;50.796;4.994;2023-01-28T09:19:37;3.50;99.90
48666;DHT22;34452;50.796;4.994;2023-01-28T09:22:04;3.40;99.90
48666;DHT22;34452;50.796;4.994;2023-01-28T09:24:30;3.40;99.90
48666;DHT22;34452;50.796;4.994;2023-01-28T09:26:56;3.10;99.90
48666;DHT22;34452;50.796;4.994;2023-01-28T09:29:21;3.20;99.90
48666;DHT22;34452;50.796;4.994;2023-01-28T09:31:47;3.20;99.90
48666;DHT22;34452;50.796;4.994;2023-01-28T09:34:13;3.30;99.90
48666;DHT22;34452;50.796;4.994;2023-01-28T09:36:39;3.20;99.90
48666;DHT22;34452;50.796;4.994;2023-01-28T09:39:05;3.20;99.90
48666;DHT22;34452;50.796;4.994;2023-01-28T09:47:09;3.50;99.90
48666;DHT22;34452;50.796;4.994;2023-01-28T09:49:40;3.50;99.90
48666;DHT22;34452;50.796;4.994;2023-01-28T09:52:12;3.40;99.90
48666;DHT22;34452;50.796;4.994;2023-01-28T09:54:44;3.50;99.90
48666;DHT22;34452;50.796;4.994;2023-01-28T09:57:19;3.40;99.90
48666;DHT22;34452;50.796;4.994;2023-01-28T09:59:47;3.40;99.90
48666;DHT22;34452;50.796;4.994;2023-01-28T10:02:20;3.40;99.90
48666;DHT22;34452;50.796;4.994;2023-01-28T10:11:20;3.40;99.90
48666;DHT22;34452;50.796;4.994;2023-01-28T10:13:47;3.30;99.90
48666;DHT22;34452;50.796;4.994;2023-01-28T10:16:53;3.40;99.90
48666;DHT22;34452;50.796;4.994;2023-01-28T10:19:25;3.30;99.90
48666;DHT22;34452;50.796;4.994;2023-01-28T10:22:15;3.40;99.90
48666;DHT22;34452;50.796;4.994;2023-01-28T10:24:57;3.40;99.90
48666;DHT22;34452;50.796;4.994;2023-01-28T10:27:30;3.40;99.90
48666;DHT22;34452;50.796;4.994;2023-01-28T10:29:58;3.60;99.90
48666;DHT22;34452;50.796;4.994;2023-01-28T10:32:31;3.50;99.90
48666;DHT22;34452;50.796;4.994;2023-01-28T10:34:59;3.40;99.90
48666;DHT22;34452;50.796;4.994;2023-01-28T10:37:27;3.50;99.90
48666;DHT22;34452;50.796;4.994;2023-01-28T10:39:56;3.50;99.90
48666;DHT22;34452;50.796;4.994;2023-01-28T10:42:34;3.60;99.90
48666;DHT22;34452;50.796;4.994;2023-01-28T10:45:01;3.60;99.90
48666;DHT22;34452;50.796;4.994;2023-01-28T10:48:12;3.40;99.90
48666;DHT22;34452;50.796;4.994;2023-01-28T10:50:16;3.30;99.90
48666;DHT22;34452;50.796;4.994;2023-01-28T10:53:04;3.20;99.90
48666;DHT22;34452;50.796;4.994;2023-01-28T10:55:45;3.20;99.90
48666;DHT22;34452;50.796;4.994;2023-01-28T10:58:24;3.10;99.90
48666;DHT22;34452;50.796;4.994;2023-01-28T11:00:58;3.20;99.90
48666;DHT22;34452;50.796;4.994;2023-01-28T11:03:24;3.30;99.90
48666;DHT22;34452;50.796;4.994;2023-01-28T11:05:57;3.30;99.90
48666;DHT22;34452;50.796;4.994;2023-01-28T11:08:25;3.30;99.90
48666;DHT22;34452;50.796;4.994;2023-01-28T11:10:53;3.30;99.90
48666;DHT22;34452;50.796;4.994;2023-01-28T11:13:20;3.20;99.90
48666;DHT22;34452;50.796;4.994;2023-01-28T11:15:56;3.20;99.90
48666;DHT22;34452;50.796;4.994;2023-01-28T11:18:28;3.10;99.90
48666;DHT22;34452;50.796;4.994;2023-01-28T11:21:00;3.10;99.90
48666;DHT22;34452;50.796;4.994;2023-01-28T11:23:32;3.20;99.90
48666;DHT22;34452;50.796;4.994;2023-01-28T11:26:08;3.20;99.90
48666;DHT22;34452;50.796;4.994;2023-01-28T11:28:40;3.20;99.90
48666;DHT22;34452;50.796;4.994;2023-01-28T11:31:09;3.20;99.90
48666;DHT22;34452;50.796;4.994;2023-01-28T11:33:43;3.10;99.90
48666;DHT22;34452;50.796;4.994;2023-01-28T11:36:13;3.10;99.90
48666;DHT22;34452;50.796;4.994;2023-01-28T11:38:58;3.30;99.90
48666;DHT22;34452;50.796;4.994;2023-01-28T11:52:29;3.10;99.90
48666;DHT22;34452;50.796;4.994;2023-01-28T12:19:08;3.70;99.90
48666;DHT22;34452;50.796;4.994;2023-01-28T12:25:18;3.80;99.90
48666;DHT22;34452;50.796;4.994;2023-01-28T12:30:53;3.50;99.90
48666;DHT22;34452;50.796;4.994;2023-01-28T12:36:47;3.60;99.90
48666;DHT22;34452;50.796;4.994;2023-01-28T12:42:03;3.70;99.90
48666;DHT22;34452;50.796;4.994;2023-01-28T12:44:47;3.50;99.90
48666;DHT22;34452;50.796;4.994;2023-01-28T12:47:28;3.60;99.90
48666;DHT22;34452;50.796;4.994;2023-01-28T12:50:09;3.70;99.90
48666;DHT22;34452;50.796;4.994;2023-01-28T12:52:46;3.80;99.90
48666;DHT22;34452;50.796;4.994;2023-01-28T12:57:40;3.80;99.90
48666;DHT22;34452;50.796;4.994;2023-01-28T13:06:00;4.20;99.90
48666;DHT22;34452;50.796;4.994;2023-01-28T13:08:28;4.40;99.90
48666;DHT22;34452;50.796;4.994;2023-01-28T13:10:56;4.50;99.90
48666;DHT22;34452;50.796;4.994;2023-01-28T13:16:00;4.80;99.90
48666;DHT22;34452;50.796;4.994;2023-01-28T13:21:05;4.80;99.90
48666;DHT22;34452;50.796;4.994;2023-01-28T13:23:43;4.70;99.90
48666;DHT22;34452;50.796;4.994;2023-01-28T13:26:11;4.60;99.90
48666;DHT22;34452;50.796;4.994;2023-01-28T13:28:52;4.60;99.90
48666;DHT22;34452;50.796;4.994;2023-01-28T13:31:22;4.70;99.90
48666;DHT22;34452;50.796;4.994;2023-01-28T13:36:27;4.80;99.90
48666;DHT22;34452;50.796;4.994;2023-01-28T13:41:44;4.70;99.90
48666;DHT22;34452;50.796;4.994;2023-01-28T13:46:49;4.60;99.90
48666;DHT22;34452;50.796;4.994;2023-01-28T13:49:20;4.20;99.90
48666;DHT22;34452;50.796;4.994;2023-01-28T13:51:59;4.20;99.90
48666;DHT22;34452;50.796;4.994;2023-01-28T13:54:27;4.10;99.90
48666;DHT22;34452;50.796;4.994;2023-01-28T14:10:26;4.30;99.90
48666;DHT22;34452;50.796;4.994;2023-01-28T14:16:23;3.90;99.90
48666;DHT22;34452;50.796;4.994;2023-01-28T14:18:52;3.70;99.90
48666;DHT22;34452;50.796;4.994;2023-01-28T14:21:20;3.90;99.90
48666;DHT22;34452;50.796;4.994;2023-01-28T14:23:56;4.00;99.90
48666;DHT22;34452;50.796;4.994;2023-01-28T14:26:34;4.10;99.90
48666;DHT22;34452;50.796;4.994;2023-01-28T14:31:45;4.00;99.90
48666;DHT22;34452;50.796;4.994;2023-01-28T14:34:33;3.90;99.90
48666;DHT22;34452;50.796;4.994;2023-01-28T14:37:03;3.80;99.90
48666;DHT22;34452;50.796;4.994;2023-01-28T14:39:31;3.90;99.90
48666;DHT22;34452;50.796;4.994;2023-01-28T14:42:00;4.10;99.90
48666;DHT22;34452;50.796;4.994;2023-01-28T14:44:37;4.10;99.90
48666;DHT22;34452;50.796;4.994;2023-01-28T14:50:26;4.20;99.90
48666;DHT22;34452;50.796;4.994;2023-01-28T14:53:17;4.10;99.90
48666;DHT22;34452;50.796;4.994;2023-01-28T14:58:38;3.90;99.90
48666;DHT22;34452;50.796;4.994;2023-01-28T15:01:19;3.90;99.90
48666;DHT22;34452;50.796;4.994;2023-01-28T15:03:46;3.80;99.90
48666;DHT22;34452;50.796;4.994;2023-01-28T15:06:17;3.90;99.90
48666;DHT22;34452;50.796;4.994;2023-01-28T15:08:45;3.90;99.90
48666;DHT22;34452;50.796;4.994;2023-01-28T15:11:15;3.90;99.90
48666;DHT22;34452;50.796;4.994;2023-01-28T15:13:45;3.90;99.90
48666;DHT22;34452;50.796;4.994;2023-01-28T15:16:17;3.90;99.90
48666;DHT22;34452;50.796;4.994;2023-01-28T15:18:44;3.90;99.90
48666;DHT22;34452;50.796;4.994;2023-01-28T15:21:10;3.90;99.90
48666;DHT22;34452;50.796;4.994;2023-01-28T15:23:38;3.90;99.90
48666;DHT22;34452;50.796;4.994;2023-01-28T15:26:25;3.80;99.90
48666;DHT22;34452;50.796;4.994;2023-01-28T15:28:53;3.80;99.90
48666;DHT22;34452;50.796;4.994;2023-01-28T15:31:27;3.80;99.90
48666;DHT22;34452;50.796;4.994;2023-01-28T15:36:21;3.70;99.90
48666;DHT22;34452;50.796;4.994;2023-01-28T15:38:46;3.70;99.90
48666;DHT22;34452;50.796;4.994;2023-01-28T15:41:12;3.60;99.90
48666;DHT22;34452;50.796;4.994;2023-01-28T15:43:45;3.60;99.90
48666;DHT22;34452;50.796;4.994;2023-01-28T15:46:12;3.60;99.90
48666;DHT22;34452;50.796;4.994;2023-01-28T15:48:41;3.50;99.90
48666;DHT22;34452;50.796;4.994;2023-01-28T15:51:22;3.50;99.90
48666;DHT22;34452;50.796;4.994;2023-01-28T15:53:51;3.40;99.90
48666;DHT22;34452;50.796;4.994;2023-01-28T15:56:25;3.30;99.90
48666;DHT22;34452;50.796;4.994;2023-01-28T15:58:52;3.30;99.90
48666;DHT22;34452;50.796;4.994;2023-01-28T16:01:19;3.30;99.90
48666;DHT22;34452;50.796;4.994;2023-01-28T16:03:46;3.20;99.90
48666;DHT22;34452;50.796;4.994;2023-01-28T16:06:32;3.20;99.90
48666;DHT22;34452;50.796;4.994;2023-01-28T16:09:05;3.10;99.90
48666;DHT22;34452;50.796;4.994;2023-01-28T16:11:35;3.10;99.90
48666;DHT22;34452;50.796;4.994;2023-01-28T16:14:06;3.00;99.90
48666;DHT22;34452;50.796;4.994;2023-01-28T16:16:36;2.90;99.90
48666;DHT22;34452;50.796;4.994;2023-01-28T16:19:05;2.90;99.90
48666;DHT22;34452;50.796;4.994;2023-01-28T16:21:37;2.80;99.90
48666;DHT22;34452;50.796;4.994;2023-01-28T16:24:29;2.70;99.90
48666;DHT22;34452;50.796;4.994;2023-01-28T16:27:04;2.60;99.90
48666;DHT22;34452;50.796;4.994;2023-01-28T16:29:32;2.50;99.90
48666;DHT22;34452;50.796;4.994;2023-01-28T16:31:58;2.50;99.90
48666;DHT22;34452;50.796;4.994;2023-01-28T16:34:24;2.40;99.90
48666;DHT22;34452;50.796;4.994;2023-01-28T16:36:55;2.40;99.90
48666;DHT22;34452;50.796;4.994;2023-01-28T16:39:21;2.30;99.90
48666;DHT22;34452;50.796;4.994;2023-01-28T16:41:47;2.30;99.90
48666;DHT22;34452;50.796;4.994;2023-01-28T16:44:14;2.20;99.90
48666;DHT22;34452;50.796;4.994;2023-01-28T16:46:41;2.20;99.90
48666;DHT22;34452;50.796;4.994;2023-01-28T16:49:06;2.10;99.90
48666;DHT22;34452;50.796;4.994;2023-01-28T16:51:34;2.20;99.90
48666;DHT22;34452;50.796;4.994;2023-01-28T16:54:01;2.20;99.90
48666;DHT22;34452;50.796;4.994;2023-01-28T16:56:27;2.10;99.90
48666;DHT22;34452;50.796;4.994;2023-01-28T16:58:54;2.20;99.90
48666;DHT22;34452;50.796;4.994;2023-01-28T17:01:20;2.20;99.90
48666;DHT22;34452;50.796;4.994;2023-01-28T17:03:45;2.20;99.90
48666;DHT22;34452;50.796;4.994;2023-01-28T17:06:16;2.30;99.90
48666;DHT22;34452;50.796;4.994;2023-01-28T17:08:42;2.30;99.90
48666;DHT22;34452;50.796;4.994;2023-01-28T17:11:08;2.30;99.90
48666;DHT22;34452;50.796;4.994;2023-01-28T17:13:34;2.30;99.90
48666;DHT22;34452;50.796;4.994;2023-01-28T17:16:04;2.20;99.90
48666;DHT22;34452;50.796;4.994;2023-01-28T17:18:30;2.10;99.90
48666;DHT22;34452;50.796;4.994;2023-01-28T17:21:14;1.90;99.90
48666;DHT22;34452;50.796;4.994;2023-01-28T17:23:40;1.80;99.90
48666;DHT22;34452;50.796;4.994;2023-01-28T17:26:06;1.70;99.90
48666;DHT22;34452;50.796;4.994;2023-01-28T17:28:33;1.60;99.90
48666;DHT22;34452;50.796;4.994;2023-01-28T17:30:59;1.50;99.90
48666;DHT22;34452;50.796;4.994;2023-01-28T17:33:25;1.50;99.90
48666;DHT22;34452;50.796;4.994;2023-01-28T17:35:51;1.50;99.90
48666;DHT22;34452;50.796;4.994;2023-01-28T17:38:16;1.50;99.90
48666;DHT22;34452;50.796;4.994;2023-01-28T17:40:42;1.50;99.90
48666;DHT22;34452;50.796;4.994;2023-01-28T17:43:08;1.50;99.90
48666;DHT22;34452;50.796;4.994;2023-01-28T17:45:33;1.40;99.90
48666;DHT22;34452;50.796;4.994;2023-01-28T17:47:59;1.40;99.90
48666;DHT22;34452;50.796;4.994;2023-01-28T17:50:25;1.50;99.90
48666;DHT22;34452;50.796;4.994;2023-01-28T17:52:53;1.40;99.90
48666;DHT22;34452;50.796;4.994;2023-01-28T17:55:20;1.40;99.90
48666;DHT22;34452;50.796;4.994;2023-01-28T17:57:45;1.40;99.90
48666;DHT22;34452;50.796;4.994;2023-01-28T18:00:11;1.40;99.90
48666;DHT22;34452;50.796;4.994;2023-01-28T18:02:37;1.30;99.90
48666;DHT22;34452;50.796;4.994;2023-01-28T18:05:03;1.40;99.90
48666;DHT22;34452;50.796;4.994;2023-01-28T18:07:29;1.40;99.90